Time;durP1;ratioP1;P1;durP2;ratioP2;P2;SDS_P1;SDS_P2;PMS_P1;PMS_P2;Temp;Humidity;BMP_temperature;BMP_pressure;BME280_temperature;BME280_humidity;BME280_pressure;Samples;Min_cycle;Max_cycle;Signal;HPM_P1;HPM_P2
2022/02/18 00:00:31;;;;;;;5.97;1.80;;;;;;;;;;5076343;28;20024;-68
2022/02/18 00:02:57;;;;;;;8.02;1.83;;;;;;;;;;5076385;28;20051;-69
2022/02/18 00:05:23;;;;;;;4.60;1.55;;;;;;;;;;5076319;28;20020;-69
2022/02/18 00:07:50;;;;;;;8.02;1.90;;;;;;;;;;5076016;28;20066;-68
2022/02/18 00:10:16;;;;;;;4.88;1.60;;;;;;;;;;5057998;28;20437;-68
2022/02/18 00:12:42;;;;;;;8.65;2.42;;;;;;;;;;5075677;28;20115;-68
2022/02/18 00:15:08;;;;;;;7.05;1.67;;;;;;;;;;5070118;28;20063;-69
2022/02/18 00:17:34;;;;;;;6.55;1.83;;;;;;;;;;5057395;28;20033;-68
2022/02/18 00:20:00;;;;;;;5.22;1.60;;;;;;;;;;5075108;28;20052;-68
2022/02/18 00:22:28;;;;;;;8.50;1.80;;;;;;;;;;5075485;28;20400;-69
2022/02/18 00:24:54;;;;;;;9.95;1.90;;;;;;;;;;5072143;28;20031;-68
2022/02/18 00:27:20;;;;;;;9.13;1.90;;;;;;;;;;5037551;28;20048;-68
2022/02/18 00:29:46;;;;;;;8.68;1.80;;;;;;;;;;5037558;28;20029;-68
2022/02/18 00:32:12;;;;;;;9.68;2.10;;;;;;;;;;5055059;28;20056;-69
2022/02/18 00:34:38;;;;;;;6.38;1.58;;;;;;;;;;5054697;28;20400;-69
2022/02/18 00:37:04;;;;;;;6.50;1.63;;;;;;;;;;5054981;28;20579;-68
2022/02/18 00:39:31;;;;;;;4.70;1.48;;;;;;;;;;5037672;28;20037;-69
2022/02/18 00:41:57;;;;;;;5.32;1.63;;;;;;;;;;5054935;28;20029;-68
2022/02/18 00:44:23;;;;;;;5.38;1.42;;;;;;;;;;5054415;28;20033;-68
2022/02/18 00:46:50;;;;;;;6.93;2.20;;;;;;;;;;5074078;28;20031;-68
2022/02/18 00:49:17;;;;;;;7.97;1.95;;;;;;;;;;5075061;28;20024;-68
2022/02/18 00:51:43;;;;;;;5.20;1.52;;;;;;;;;;5074722;28;20032;-68
2022/02/18 00:54:09;;;;;;;8.13;1.63;;;;;;;;;;5074543;28;20036;-68
2022/02/18 00:56:35;;;;;;;6.40;1.77;;;;;;;;;;5074596;28;20031;-68
2022/02/18 00:59:02;;;;;;;7.95;1.90;;;;;;;;;;5074493;28;20034;-68
2022/02/18 01:01:28;;;;;;;6.97;1.70;;;;;;;;;;5074755;28;20441;-68
2022/02/18 01:03:54;;;;;;;5.32;1.83;;;;;;;;;;5067861;28;20036;-68
2022/02/18 01:06:21;;;;;;;5.88;1.65;;;;;;;;;;5074821;28;20047;-68
2022/02/18 01:08:47;;;;;;;6.88;1.80;;;;;;;;;;5074157;28;20028;-68
2022/02/18 01:11:13;;;;;;;6.72;1.58;;;;;;;;;;5074486;28;20025;-69
2022/02/18 01:13:40;;;;;;;6.82;1.63;;;;;;;;;;5073792;28;20040;-68
2022/02/18 01:16:07;;;;;;;4.82;1.35;;;;;;;;;;5073864;28;20371;-68
2022/02/18 01:18:33;;;;;;;4.45;1.40;;;;;;;;;;5073570;28;20040;-68
2022/02/18 01:21:00;;;;;;;6.28;1.70;;;;;;;;;;5073549;28;20028;-68
2022/02/18 01:23:26;;;;;;;6.00;1.50;;;;;;;;;;5073091;28;20475;-68
2022/02/18 01:25:52;;;;;;;6.97;1.77;;;;;;;;;;5062052;28;20028;-68
2022/02/18 01:28:18;;;;;;;5.97;1.42;;;;;;;;;;5053397;28;20044;-67
2022/02/18 01:30:44;;;;;;;6.22;2.03;;;;;;;;;;5035665;28;20573;-68
2022/02/18 01:33:10;;;;;;;9.13;2.33;;;;;;;;;;5040019;28;20032;-67
2022/02/18 01:35:37;;;;;;;6.30;1.73;;;;;;;;;;5073210;28;20056;-67
2022/02/18 01:38:03;;;;;;;8.90;2.10;;;;;;;;;;5072673;28;20128;-67
2022/02/18 01:40:30;;;;;;;9.52;1.77;;;;;;;;;;5055193;28;20469;-67
2022/02/18 01:42:57;;;;;;;4.88;1.70;;;;;;;;;;5063396;28;20024;-67
2022/02/18 01:45:23;;;;;;;8.32;1.95;;;;;;;;;;5035246;28;20029;-68
2022/02/18 01:47:49;;;;;;;7.32;1.70;;;;;;;;;;5052700;28;20024;-66
2022/02/18 01:50:16;;;;;;;4.78;1.65;;;;;;;;;;5067884;28;20404;-67
2022/02/18 01:52:43;;;;;;;7.20;1.67;;;;;;;;;;5072723;28;20035;-66
2022/02/18 01:55:10;;;;;;;6.43;1.63;;;;;;;;;;5072962;28;20024;-67
2022/02/18 01:57:40;;;;;;;5.85;1.73;;;;;;;;;;5072693;28;20041;-67
2022/02/18 02:00:08;;;;;;;5.90;1.65;;;;;;;;;;5072315;28;20033;-68
2022/02/18 02:02:35;;;;;;;10.07;2.00;;;;;;;;;;5072568;28;20496;-67
2022/02/18 02:05:01;;;;;;;8.57;2.03;;;;;;;;;;5072839;28;20104;-67
2022/02/18 02:07:27;;;;;;;5.18;1.60;;;;;;;;;;5072671;28;20356;-68
2022/02/18 02:09:54;;;;;;;5.38;1.42;;;;;;;;;;5072624;28;20467;-67
2022/02/18 02:12:19;;;;;;;8.13;1.75;;;;;;;;;;5072489;28;20103;-68
2022/02/18 02:14:45;;;;;;;4.45;1.65;;;;;;;;;;5072791;28;20119;-67
2022/02/18 02:17:12;;;;;;;5.53;1.80;;;;;;;;;;5072989;28;20426;-70
2022/02/18 02:19:38;;;;;;;10.23;2.25;;;;;;;;;;5073535;28;20483;-70
2022/02/18 02:22:04;;;;;;;6.55;1.83;;;;;;;;;;5066183;28;20031;-68
2022/02/18 02:24:30;;;;;;;5.78;1.80;;;;;;;;;;5068864;28;20029;-69
2022/02/18 02:26:56;;;;;;;8.82;1.90;;;;;;;;;;5034648;28;20017;-68
2022/02/18 02:29:22;;;;;;;7.13;1.60;;;;;;;;;;5052445;28;20021;-68
2022/02/18 02:31:48;;;;;;;9.98;2.03;;;;;;;;;;5052318;28;20052;-67
2022/02/18 02:34:14;;;;;;;8.80;2.40;;;;;;;;;;5052101;28;20075;-67
2022/02/18 02:36:42;;;;;;;5.80;1.70;;;;;;;;;;5052108;28;20037;-68
2022/02/18 02:39:08;;;;;;;8.93;2.25;;;;;;;;;;5052250;28;20518;-68
2022/02/18 02:41:34;;;;;;;7.85;1.90;;;;;;;;;;5051939;28;20032;-67
2022/02/18 02:44:00;;;;;;;7.28;1.92;;;;;;;;;;5034202;28;20033;-68
2022/02/18 02:46:26;;;;;;;8.63;1.80;;;;;;;;;;5055286;28;20039;-67
2022/02/18 02:48:52;;;;;;;7.85;1.80;;;;;;;;;;5072099;28;20379;-67
2022/02/18 02:51:18;;;;;;;9.82;2.30;;;;;;;;;;5071973;28;20029;-67
2022/02/18 02:53:44;;;;;;;10.45;2.20;;;;;;;;;;5072234;28;20032;-67
2022/02/18 02:56:10;;;;;;;11.15;2.47;;;;;;;;;;5072178;28;20021;-67
2022/02/18 02:58:37;;;;;;;7.88;2.10;;;;;;;;;;5071996;28;20032;-67
2022/02/18 03:01:03;;;;;;;8.13;2.08;;;;;;;;;;5071939;28;20506;-67
2022/02/18 03:03:30;;;;;;;7.43;2.13;;;;;;;;;;5062402;28;20056;-69
2022/02/18 03:05:56;;;;;;;9.23;2.08;;;;;;;;;;5072453;28;20031;-67
2022/02/18 03:08:23;;;;;;;10.18;2.53;;;;;;;;;;5072242;28;20036;-67
2022/02/18 03:13:50;;;;;;;11.00;2.05;;;;;;;;;;5031155;28;20021;-68
2022/02/18 03:16:17;;;;;;;9.77;2.15;;;;;;;;;;5058205;28;20047;-67
2022/02/18 03:18:43;;;;;;;10.75;2.40;;;;;;;;;;5075835;28;20507;-67
2022/02/18 03:21:09;;;;;;;5.88;2.00;;;;;;;;;;5057786;28;20372;-68
2022/02/18 03:23:35;;;;;;;9.70;3.03;;;;;;;;;;5057670;28;20024;-67
2022/02/18 03:26:01;;;;;;;11.38;2.88;;;;;;;;;;5057847;28;20035;-68
2022/02/18 03:28:27;;;;;;;11.52;2.40;;;;;;;;;;5075650;28;20032;-68
2022/02/18 03:30:54;;;;;;;10.50;2.42;;;;;;;;;;5075710;28;20488;-67
2022/02/18 03:33:20;;;;;;;10.15;2.42;;;;;;;;;;5075425;28;20036;-67
2022/02/18 03:35:46;;;;;;;8.13;2.13;;;;;;;;;;5074814;28;20017;-68
2022/02/18 03:38:12;;;;;;;6.50;2.28;;;;;;;;;;5043490;28;20048;-67
2022/02/18 03:40:38;;;;;;;10.52;2.33;;;;;;;;;;5075617;28;20364;-69
2022/02/18 03:43:04;;;;;;;8.85;2.58;;;;;;;;;;5046969;28;20032;-67
2022/02/18 03:45:30;;;;;;;8.80;2.25;;;;;;;;;;5055517;28;20033;-68
2022/02/18 03:47:56;;;;;;;10.05;2.45;;;;;;;;;;5055489;28;20024;-68
2022/02/18 03:50:22;;;;;;;5.95;1.63;;;;;;;;;;5055386;28;20372;-67
2022/02/18 03:52:51;;;;;;;8.55;1.98;;;;;;;;;;5057018;28;20357;-68
2022/02/18 03:55:18;;;;;;;7.13;2.00;;;;;;;;;;5075371;28;20164;-67
2022/02/18 03:57:44;;;;;;;7.05;1.92;;;;;;;;;;5075357;28;20471;-68
2022/02/18 04:00:11;;;;;;;9.85;2.42;;;;;;;;;;5057271;28;20025;-69
2022/02/18 04:02:37;;;;;;;10.55;2.33;;;;;;;;;;5074916;28;20056;-68
2022/02/18 04:05:03;;;;;;;10.07;2.60;;;;;;;;;;5075469;28;20025;-69
2022/02/18 04:07:29;;;;;;;6.32;1.80;;;;;;;;;;5074544;28;20032;-68
2022/02/18 04:09:55;;;;;;;8.35;1.85;;;;;;;;;;5071802;28;20020;-68
2022/02/18 04:12:21;;;;;;;6.47;2.35;;;;;;;;;;5074904;28;20483;-67
2022/02/18 04:14:47;;;;;;;6.75;2.28;;;;;;;;;;5074871;28;20021;-68
2022/02/18 04:17:13;;;;;;;7.47;2.40;;;;;;;;;;5075055;28;20101;-68
2022/02/18 04:19:39;;;;;;;8.63;2.15;;;;;;;;;;5074805;28;20040;-68
2022/02/18 04:22:06;;;;;;;8.18;2.20;;;;;;;;;;5073838;28;20032;-67
2022/02/18 04:24:32;;;;;;;6.68;2.25;;;;;;;;;;5074058;28;20028;-68
2022/02/18 04:26:58;;;;;;;7.28;1.75;;;;;;;;;;5055261;28;20155;-67
2022/02/18 04:29:24;;;;;;;5.63;1.90;;;;;;;;;;5054740;28;20017;-66
2022/02/18 04:31:50;;;;;;;5.95;1.98;;;;;;;;;;5036838;28;20032;-68
2022/02/18 04:34:16;;;;;;;8.52;2.10;;;;;;;;;;5054366;28;20531;-68
2022/02/18 04:36:42;;;;;;;9.43;2.40;;;;;;;;;;5054457;28;20031;-66
2022/02/18 04:39:08;;;;;;;3.38;1.27;;;;;;;;;;5054167;28;20040;-67
2022/02/18 04:41:36;;;;;;;8.07;2.22;;;;;;;;;;5062404;28;20025;-66
2022/02/18 04:44:02;;;;;;;8.27;2.17;;;;;;;;;;5068892;28;20104;-68
2022/02/18 04:46:28;;;;;;;7.03;1.90;;;;;;;;;;5075263;28;20392;-67
2022/02/18 04:48:55;;;;;;;4.97;1.70;;;;;;;;;;5074856;28;20393;-68
2022/02/18 04:51:21;;;;;;;7.20;2.30;;;;;;;;;;5074717;28;20479;-68
2022/02/18 04:53:47;;;;;;;8.88;2.85;;;;;;;;;;5056516;28;20691;-67
2022/02/18 04:56:13;;;;;;;7.55;2.15;;;;;;;;;;5074383;28;20024;-67
2022/02/18 04:58:39;;;;;;;5.72;1.92;;;;;;;;;;5074106;28;20041;-67
2022/02/18 05:01:06;;;;;;;6.35;2.25;;;;;;;;;;5074163;28;20070;-68
2022/02/18 05:03:32;;;;;;;7.53;2.22;;;;;;;;;;5055994;28;20028;-67
2022/02/18 05:05:58;;;;;;;8.48;2.20;;;;;;;;;;5054556;28;20043;-67
2022/02/18 05:08:24;;;;;;;6.55;1.88;;;;;;;;;;5073957;28;20503;-67
2022/02/18 05:10:50;;;;;;;7.32;2.28;;;;;;;;;;5073526;28;20422;-67
2022/02/18 05:13:16;;;;;;;4.85;1.63;;;;;;;;;;5055970;28;20028;-67
2022/02/18 05:15:41;;;;;;;6.10;1.92;;;;;;;;;;5074134;28;20467;-67
2022/02/18 05:18:08;;;;;;;9.20;2.00;;;;;;;;;;5073813;28;20065;-67
2022/02/18 05:20:34;;;;;;;4.88;1.85;;;;;;;;;;5073756;28;20036;-67
2022/02/18 05:23:00;;;;;;;7.18;2.15;;;;;;;;;;5053610;28;20077;-67
2022/02/18 05:25:26;;;;;;;11.20;2.33;;;;;;;;;;5053168;28;20707;-67
2022/02/18 05:27:52;;;;;;;6.63;2.00;;;;;;;;;;5053585;28;20021;-68
2022/02/18 05:30:19;;;;;;;7.10;1.80;;;;;;;;;;5053373;28;20033;-67
2022/02/18 05:32:45;;;;;;;4.43;1.52;;;;;;;;;;5035080;28;20112;-67
2022/02/18 05:35:11;;;;;;;9.82;2.45;;;;;;;;;;5053425;28;20594;-68
2022/02/18 05:37:37;;;;;;;10.00;2.35;;;;;;;;;;5053185;28;20068;-67
2022/02/18 05:40:04;;;;;;;10.50;2.30;;;;;;;;;;5053348;28;20388;-67
2022/02/18 05:42:30;;;;;;;12.82;2.22;;;;;;;;;;5047522;28;20028;-67
2022/02/18 05:44:56;;;;;;;5.85;1.98;;;;;;;;;;5016083;28;20026;-69
2022/02/18 05:47:22;;;;;;;6.18;2.00;;;;;;;;;;5033261;28;20029;-68
2022/02/18 05:49:48;;;;;;;5.95;1.80;;;;;;;;;;5033461;28;20044;-67
2022/02/18 05:52:13;;;;;;;4.82;1.65;;;;;;;;;;5039770;28;20468;-69
2022/02/18 05:54:41;;;;;;;8.05;2.55;;;;;;;;;;5062998;28;20039;-68
2022/02/18 05:57:07;;;;;;;6.22;1.83;;;;;;;;;;5055133;28;20025;-67
2022/02/18 05:59:33;;;;;;;8.30;2.05;;;;;;;;;;5072891;28;20029;-67
2022/02/18 06:01:59;;;;;;;4.80;2.03;;;;;;;;;;5072843;28;20027;-68
2022/02/18 06:04:25;;;;;;;6.90;1.85;;;;;;;;;;5072784;28;20032;-67
2022/02/18 06:06:51;;;;;;;4.88;1.95;;;;;;;;;;5072824;28;20028;-68
2022/02/18 06:09:17;;;;;;;7.40;2.50;;;;;;;;;;5051673;28;20021;-68
2022/02/18 06:11:43;;;;;;;7.47;2.35;;;;;;;;;;5038654;28;20021;-68
2022/02/18 06:14:09;;;;;;;8.13;2.10;;;;;;;;;;5047324;28;20330;-67
2022/02/18 06:16:39;;;;;;;10.20;2.13;;;;;;;;;;5052908;28;20025;-69
2022/02/18 06:19:07;;;;;;;10.30;2.17;;;;;;;;;;5052560;28;20057;-67
2022/02/18 06:21:33;;;;;;;7.85;2.38;;;;;;;;;;5052837;28;20017;-68
2022/02/18 06:23:59;;;;;;;6.13;2.13;;;;;;;;;;5055960;28;20051;-68
2022/02/18 06:26:25;;;;;;;8.95;2.22;;;;;;;;;;5064321;28;20119;-67
2022/02/18 06:28:51;;;;;;;8.73;2.08;;;;;;;;;;5072462;28;20523;-67
2022/02/18 06:31:18;;;;;;;10.07;2.85;;;;;;;;;;5054495;28;20067;-68
2022/02/18 06:33:48;;;;;;;10.48;2.33;;;;;;;;;;5054696;28;20040;-67
2022/02/18 06:36:14;;;;;;;12.25;3.03;;;;;;;;;;5041305;28;20120;-68
2022/02/18 06:38:42;;;;;;;10.27;2.15;;;;;;;;;;5029469;28;20048;-66
2022/02/18 06:41:08;;;;;;;9.07;2.33;;;;;;;;;;5033989;28;20033;-68
2022/02/18 06:43:34;;;;;;;8.80;2.75;;;;;;;;;;5052629;28;20028;-69
2022/02/18 06:46:00;;;;;;;11.00;2.75;;;;;;;;;;5035182;28;20021;-70
2022/02/18 06:48:26;;;;;;;9.90;2.85;;;;;;;;;;5043153;28;20025;-68
2022/02/18 06:50:52;;;;;;;8.93;2.25;;;;;;;;;;5037818;28;20037;-67
2022/02/18 06:53:18;;;;;;;12.82;2.58;;;;;;;;;;5043525;28;20021;-67
2022/02/18 06:55:44;;;;;;;10.68;2.33;;;;;;;;;;5062134;28;20498;-69
2022/02/18 06:58:11;;;;;;;10.07;2.70;;;;;;;;;;5052617;28;20041;-68
2022/02/18 07:00:37;;;;;;;15.18;3.13;;;;;;;;;;5032230;28;20104;-69
2022/02/18 07:03:03;;;;;;;11.05;2.53;;;;;;;;;;5032572;28;20053;-70
2022/02/18 07:05:29;;;;;;;11.77;2.90;;;;;;;;;;5037480;28;20021;-68
2022/02/18 07:07:55;;;;;;;8.10;2.47;;;;;;;;;;5048480;28;20634;-70
2022/02/18 07:10:22;;;;;;;10.70;2.72;;;;;;;;;;5053953;28;20079;-71
2022/02/18 07:12:48;;;;;;;14.30;2.50;;;;;;;;;;5042097;28;20040;-70
2022/02/18 07:15:15;;;;;;;15.25;3.35;;;;;;;;;;5031293;28;20023;-71
2022/02/18 07:17:41;;;;;;;9.48;2.92;;;;;;;;;;5042609;28;20021;-72
2022/02/18 07:20:10;;;;;;;14.45;2.58;;;;;;;;;;5047074;28;20078;-71
2022/02/18 07:22:40;;;;;;;12.75;2.85;;;;;;;;;;5046903;28;20107;-70
2022/02/18 07:25:07;;;;;;;8.38;2.80;;;;;;;;;;5037562;28;20025;-70
2022/02/18 07:27:33;;;;;;;17.10;2.88;;;;;;;;;;5028779;28;20033;-66
2022/02/18 07:30:00;;;;;;;8.95;2.55;;;;;;;;;;5041063;28;20022;-66
2022/02/18 07:32:26;;;;;;;27.55;3.63;;;;;;;;;;5048995;28;20059;-67
2022/02/18 07:34:52;;;;;;;14.07;2.95;;;;;;;;;;5054369;28;20021;-69
2022/02/18 07:37:18;;;;;;;13.38;3.05;;;;;;;;;;5046790;28;20555;-70
2022/02/18 07:39:45;;;;;;;22.60;2.97;;;;;;;;;;5032233;28;20033;-69
2022/02/18 07:42:11;;;;;;;12.98;2.67;;;;;;;;;;5031908;28;20053;-68
2022/02/18 07:44:37;;;;;;;7.70;2.22;;;;;;;;;;5031731;28;20115;-67
2022/02/18 07:47:03;;;;;;;21.33;3.17;;;;;;;;;;5031810;28;20041;-70
2022/02/18 07:49:29;;;;;;;25.17;3.10;;;;;;;;;;5032312;28;20531;-69
2022/02/18 07:51:55;;;;;;;7.95;2.40;;;;;;;;;;5030707;28;20064;-69
2022/02/18 07:54:21;;;;;;;13.85;2.58;;;;;;;;;;5064580;28;20029;-68
2022/02/18 07:56:47;;;;;;;10.95;2.42;;;;;;;;;;5065461;28;20401;-68
2022/02/18 07:59:14;;;;;;;14.88;2.88;;;;;;;;;;5052659;28;20423;-69
2022/02/18 08:01:40;;;;;;;12.30;3.30;;;;;;;;;;5055040;28;20106;-65
2022/02/18 08:04:07;;;;;;;13.63;2.63;;;;;;;;;;5053229;28;20021;-67
2022/02/18 08:06:33;;;;;;;14.10;3.22;;;;;;;;;;5050476;28;20018;-67
2022/02/18 08:09:00;;;;;;;20.17;2.90;;;;;;;;;;5035406;28;20030;-71
2022/02/18 08:11:26;;;;;;;12.25;2.58;;;;;;;;;;5036029;28;20022;-69
2022/02/18 08:13:53;;;;;;;13.07;2.83;;;;;;;;;;5035362;28;20437;-69
2022/02/18 08:16:19;;;;;;;9.68;2.60;;;;;;;;;;5036033;28;20088;-68
2022/02/18 08:18:45;;;;;;;8.40;2.67;;;;;;;;;;5052766;28;20041;-67
2022/02/18 08:21:12;;;;;;;10.23;2.70;;;;;;;;;;5061278;28;20033;-64
2022/02/18 08:23:38;;;;;;;13.43;2.65;;;;;;;;;;5034847;28;20492;-63
2022/02/18 08:26:04;;;;;;;10.95;2.60;;;;;;;;;;5037052;28;20392;-69
2022/02/18 08:28:31;;;;;;;11.02;2.78;;;;;;;;;;5035743;28;20120;-70
2022/02/18 08:30:57;;;;;;;7.18;2.33;;;;;;;;;;5034923;28;20025;-69
2022/02/18 08:33:23;;;;;;;12.02;2.58;;;;;;;;;;5039390;28;20031;-70
2022/02/18 08:35:49;;;;;;;10.77;2.20;;;;;;;;;;5065856;28;20037;-65
2022/02/18 08:38:15;;;;;;;9.00;2.30;;;;;;;;;;5074751;28;20044;-74
2022/02/18 08:40:41;;;;;;;11.82;2.70;;;;;;;;;;5075494;28;20089;-73
2022/02/18 08:43:07;;;;;;;10.93;2.45;;;;;;;;;;5075108;28;20473;-70
2022/02/18 08:45:34;;;;;;;13.40;2.67;;;;;;;;;;5066573;28;20028;-81
2022/02/18 08:48:00;;;;;;;12.82;2.80;;;;;;;;;;5055692;28;20036;-76
2022/02/18 08:50:27;;;;;;;11.63;2.42;;;;;;;;;;5056002;28;20025;-80
2022/02/18 08:52:53;;;;;;;8.38;2.53;;;;;;;;;;5055403;28;20633;-76
2022/02/18 08:55:21;;;;;;;8.48;2.65;;;;;;;;;;5055074;28;20017;-74
2022/02/18 08:57:48;;;;;;;13.75;2.50;;;;;;;;;;5054902;28;20044;-75
2022/02/18 09:00:15;;;;;;;11.40;2.95;;;;;;;;;;5056014;28;20017;-80
2022/02/18 09:02:44;;;;;;;10.18;2.50;;;;;;;;;;5055739;28;20121;-73
2022/02/18 09:05:10;;;;;;;8.50;2.30;;;;;;;;;;5054977;28;20112;-78
2022/02/18 09:07:36;;;;;;;10.10;2.75;;;;;;;;;;5044510;28;20030;-73
2022/02/18 09:10:03;;;;;;;43.78;3.17;;;;;;;;;;5044754;28;20025;-74
2022/02/18 09:12:29;;;;;;;26.20;3.08;;;;;;;;;;5044013;28;20032;-67
2022/02/18 09:14:55;;;;;;;26.58;2.83;;;;;;;;;;5043969;28;20029;-67
2022/02/18 09:17:21;;;;;;;11.13;2.20;;;;;;;;;;5041980;28;20088;-69
2022/02/18 09:19:51;;;;;;;22.13;2.53;;;;;;;;;;5042498;28;20068;-67
2022/02/18 09:22:17;;;;;;;22.58;2.47;;;;;;;;;;5043879;28;20389;-70
2022/02/18 09:24:43;;;;;;;13.70;2.65;;;;;;;;;;5025119;28;20473;-71
2022/02/18 09:27:09;;;;;;;10.48;1.92;;;;;;;;;;5026831;28;20018;-71
2022/02/18 09:29:35;;;;;;;6.32;1.92;;;;;;;;;;5042018;28;20476;-72
2022/02/18 09:32:04;;;;;;;6.47;1.95;;;;;;;;;;5044017;28;20021;-69
2022/02/18 09:34:30;;;;;;;16.70;2.38;;;;;;;;;;5044099;28;20052;-71
2022/02/18 09:36:56;;;;;;;6.65;1.45;;;;;;;;;;5041337;28;20081;-68
2022/02/18 09:39:22;;;;;;;8.98;1.95;;;;;;;;;;5042321;28;20041;-69
2022/02/18 09:41:48;;;;;;;15.10;2.00;;;;;;;;;;5044048;28;20017;-68
2022/02/18 09:44:15;;;;;;;18.33;2.13;;;;;;;;;;5043252;28;20025;-73
2022/02/18 09:46:41;;;;;;;9.35;1.98;;;;;;;;;;5041858;28;20029;-72
2022/02/18 09:49:07;;;;;;;8.40;1.73;;;;;;;;;;5045809;28;20480;-73
2022/02/18 09:51:33;;;;;;;11.98;1.80;;;;;;;;;;5045239;28;20483;-72
2022/02/18 09:53:59;;;;;;;16.15;1.85;;;;;;;;;;5039453;28;20030;-71
2022/02/18 09:56:25;;;;;;;11.00;1.55;;;;;;;;;;5054303;28;20025;-75
2022/02/18 09:58:57;;;;;;;30.25;1.65;;;;;;;;;;5025735;28;20452;-73
2022/02/18 10:01:23;;;;;;;15.80;1.60;;;;;;;;;;5039147;28;20485;-72
2022/02/18 10:03:49;;;;;;;12.27;1.48;;;;;;;;;;5043138;28;20063;-72
2022/02/18 10:06:15;;;;;;;13.02;1.67;;;;;;;;;;5043047;28;20053;-72
2022/02/18 10:08:48;;;;;;;10.25;1.63;;;;;;;;;;5044672;28;20060;-72
2022/02/18 10:11:14;;;;;;;16.25;1.40;;;;;;;;;;5027474;28;20021;-73
2022/02/18 10:13:41;;;;;;;10.82;1.35;;;;;;;;;;5041244;28;20034;-74
2022/02/18 10:16:23;;;;;;;6.40;1.00;;;;;;;;;;5039598;28;20024;-73
2022/02/18 10:18:49;;;;;;;10.18;1.52;;;;;;;;;;5040106;28;20040;-70
2022/02/18 10:21:16;;;;;;;7.15;1.30;;;;;;;;;;5041194;28;20037;-75
2022/02/18 10:23:42;;;;;;;9.20;1.20;;;;;;;;;;5042852;28;20023;-73
2022/02/18 10:26:08;;;;;;;3.20;1.00;;;;;;;;;;5040759;28;20116;-76
2022/02/18 10:28:34;;;;;;;7.10;1.17;;;;;;;;;;5052648;28;20421;-77
2022/02/18 10:31:05;;;;;;;7.47;1.10;;;;;;;;;;5068268;28;20032;-73
2022/02/18 10:33:35;;;;;;;6.85;0.90;;;;;;;;;;5048595;28;20143;-72
2022/02/18 10:36:02;;;;;;;3.83;0.80;;;;;;;;;;5033269;28;20129;-74
2022/02/18 10:38:35;;;;;;;2.30;0.85;;;;;;;;;;5032813;28;20061;-74
2022/02/18 10:41:02;;;;;;;5.67;0.97;;;;;;;;;;5033712;28;20033;-73
2022/02/18 10:43:28;;;;;;;2.25;0.80;;;;;;;;;;5033985;28;20385;-68
2022/02/18 10:45:59;;;;;;;9.02;0.80;;;;;;;;;;5058077;28;20093;-71
2022/02/18 10:48:25;;;;;;;3.40;0.82;;;;;;;;;;5072931;28;20039;-68
2022/02/18 10:51:08;;;;;;;7.93;1.60;;;;;;;;;;5074045;28;20066;-73
2022/02/18 10:53:38;;;;;;;2.85;1.15;;;;;;;;;;5073816;28;20025;-71
2022/02/18 10:56:08;;;;;;;3.70;1.20;;;;;;;;;;5059064;28;20040;-76
2022/02/18 10:58:38;;;;;;;4.68;2.53;;;;;;;;;;5073848;28;20154;-80
2022/02/18 11:01:11;;;;;;;8.07;1.20;;;;;;;;;;5074360;28;20055;-74
2022/02/18 11:03:39;;;;;;;4.07;1.33;;;;;;;;;;5074604;28;20078;-77
2022/02/18 11:06:17;;;;;;;8.55;2.78;;;;;;;;;;5075039;28;20525;-78
2022/02/18 11:08:47;;;;;;;4.00;2.70;;;;;;;;;;5074779;28;20744;-73
2022/02/18 11:11:13;;;;;;;4.82;3.28;;;;;;;;;;5075210;28;20085;-77
2022/02/18 11:13:40;;;;;;;6.22;4.53;;;;;;;;;;5075040;28;20107;-73
2022/02/18 11:16:09;;;;;;;7.32;4.68;;;;;;;;;;5075726;28;20070;-75
2022/02/18 11:18:35;;;;;;;11.02;6.18;;;;;;;;;;5053069;28;20160;-77
2022/02/18 11:21:02;;;;;;;9.02;5.47;;;;;;;;;;5054831;28;20090;-80
2022/02/18 11:23:28;;;;;;;11.30;7.05;;;;;;;;;;5054656;28;20028;-77
2022/02/18 11:25:54;;;;;;;12.88;8.68;;;;;;;;;;5054650;28;20025;-78
2022/02/18 11:28:20;;;;;;;13.10;8.13;;;;;;;;;;5055723;28;20035;-80
2022/02/18 11:30:47;;;;;;;13.98;7.75;;;;;;;;;;5056075;28;20045;-81
2022/02/18 11:33:30;;;;;;;16.42;9.77;;;;;;;;;;5059948;28;20017;-77
2022/02/18 11:36:15;;;;;;;14.32;8.85;;;;;;;;;;5039503;28;20143;-72
2022/02/18 11:38:50;;;;;;;15.45;9.00;;;;;;;;;;5038770;28;20045;-77
2022/02/18 11:41:34;;;;;;;13.15;8.52;;;;;;;;;;5039039;28;20025;-79
2022/02/18 11:44:01;;;;;;;11.90;7.07;;;;;;;;;;5038781;28;20108;-75
2022/02/18 11:46:28;;;;;;;15.38;7.05;;;;;;;;;;5039531;28;20033;-80
2022/02/18 11:48:56;;;;;;;12.90;6.28;;;;;;;;;;5037590;28;20037;-75
2022/02/18 11:51:26;;;;;;;16.77;6.18;;;;;;;;;;5053617;28;20023;-72
2022/02/18 11:53:55;;;;;;;11.63;5.65;;;;;;;;;;5076605;28;20052;-75
2022/02/18 11:56:38;;;;;;;14.05;4.82;;;;;;;;;;5075997;28;20082;-67
2022/02/18 11:59:04;;;;;;;18.23;4.78;;;;;;;;;;5076141;28;20090;-74
2022/02/18 12:01:49;;;;;;;11.52;4.80;;;;;;;;;;5056586;28;20033;-71
2022/02/18 12:04:16;;;;;;;18.52;4.50;;;;;;;;;;5018295;28;20029;-75
2022/02/18 12:06:42;;;;;;;16.63;3.25;;;;;;;;;;5036279;28;20029;-73
2022/02/18 12:09:08;;;;;;;18.55;4.15;;;;;;;;;;5036326;28;20105;-78
2022/02/18 12:11:43;;;;;;;10.73;3.72;;;;;;;;;;5036753;28;20021;-73
2022/02/18 12:14:11;;;;;;;14.18;3.67;;;;;;;;;;5036318;28;20071;-72
2022/02/18 12:16:38;;;;;;;13.90;3.13;;;;;;;;;;5035588;28;20022;-73
2022/02/18 12:19:09;;;;;;;11.02;2.75;;;;;;;;;;5035921;28;20045;-68
2022/02/18 12:21:54;;;;;;;8.57;2.75;;;;;;;;;;5035820;28;20021;-69
2022/02/18 12:24:50;;;;;;;10.18;2.97;;;;;;;;;;5043588;28;20067;-70
2022/02/18 12:27:28;;;;;;;8.05;2.58;;;;;;;;;;5042864;28;20487;-71
2022/02/18 12:29:54;;;;;;;11.25;3.10;;;;;;;;;;5055551;28;20029;-74
2022/02/18 12:32:21;;;;;;;11.43;2.55;;;;;;;;;;5055591;28;20120;-70
2022/02/18 12:34:59;;;;;;;11.95;2.90;;;;;;;;;;5055764;28;20061;-74
2022/02/18 12:37:25;;;;;;;19.95;2.92;;;;;;;;;;5054857;28;20048;-71
2022/02/18 12:39:57;;;;;;;37.72;3.80;;;;;;;;;;5055409;28;20040;-75
2022/02/18 12:42:23;;;;;;;;;;;;;;;;;;5055480;28;20107;-75
2022/02/18 12:44:51;;;;;;;16.13;3.08;;;;;;;;;;5054838;28;19958;-75
2022/02/18 12:47:27;;;;;;;15.63;3.00;;;;;;;;;;5055246;28;20057;-75
2022/02/18 12:49:56;;;;;;;19.77;3.63;;;;;;;;;;5055701;28;20036;-75
2022/02/18 12:52:25;;;;;;;17.27;3.38;;;;;;;;;;5055005;28;20104;-74
2022/02/18 12:54:52;;;;;;;15.85;3.05;;;;;;;;;;5075153;28;20029;-76
2022/02/18 12:57:20;;;;;;;15.57;3.85;;;;;;;;;;5075003;28;20032;-75
2022/02/18 12:59:47;;;;;;;14.95;3.90;;;;;;;;;;5075292;28;20116;-75
2022/02/18 13:02:32;;;;;;;13.88;3.42;;;;;;;;;;5075223;28;20032;-75
2022/02/18 13:05:12;;;;;;;14.68;3.45;;;;;;;;;;5075370;28;20078;-73
2022/02/18 13:07:42;;;;;;;14.15;3.35;;;;;;;;;;5075053;28;20021;-68
2022/02/18 13:10:09;;;;;;;21.13;4.00;;;;;;;;;;5055778;28;20029;-71
2022/02/18 13:12:42;;;;;;;15.75;3.33;;;;;;;;;;5055933;28;20033;-72
2022/02/18 13:15:12;;;;;;;14.07;3.80;;;;;;;;;;5074410;28;20021;-66
2022/02/18 13:17:46;;;;;;;16.10;3.50;;;;;;;;;;5074481;28;20120;-69
2022/02/18 13:20:14;;;;;;;20.23;4.00;;;;;;;;;;5075165;28;20133;-75
2022/02/18 13:22:40;;;;;;;23.33;3.33;;;;;;;;;;5056998;28;20171;-75
2022/02/18 13:25:38;;;;;;;16.80;3.38;;;;;;;;;;5074759;28;20551;-79
2022/02/18 13:28:06;;;;;;;13.98;3.42;;;;;;;;;;5030479;28;20043;-75
2022/02/18 13:30:33;;;;;;;17.88;3.85;;;;;;;;;;5074188;28;20032;-79
2022/02/18 13:33:00;;;;;;;18.75;3.33;;;;;;;;;;5075336;28;20048;-79
2022/02/18 13:35:26;;;;;;;18.25;3.92;;;;;;;;;;5072337;28;20498;-75
2022/02/18 13:37:52;;;;;;;22.05;4.05;;;;;;;;;;5038589;28;20058;-64
2022/02/18 13:40:18;;;;;;;11.85;3.33;;;;;;;;;;5035680;28;20067;-78
2022/02/18 13:42:51;;;;;;;24.92;4.53;;;;;;;;;;5036070;28;20025;-86
2022/02/18 13:45:18;;;;;;;35.15;5.15;;;;;;;;;;5036683;28;20037;-67
2022/02/18 13:47:44;;;;;;;27.20;4.85;;;;;;;;;;5017794;28;20094;-76
2022/02/18 13:50:11;;;;;;;19.13;4.53;;;;;;;;;;5035539;28;20033;-87
2022/02/18 13:52:37;;;;;;;19.55;3.92;;;;;;;;;;5035236;28;20044;-82
2022/02/18 13:55:03;;;;;;;31.98;5.25;;;;;;;;;;5043813;28;20032;-79
2022/02/18 13:57:33;;;;;;;26.48;5.32;;;;;;;;;;5075058;28;20023;-71
2022/02/18 13:59:58;;;;;;;33.22;5.90;;;;;;;;;;5074458;28;20042;-75
2022/02/18 14:02:25;;;;;;;28.80;6.00;;;;;;;;;;5073380;28;20012;-71
2022/02/18 14:04:51;;;;;;;28.55;6.45;;;;;;;;;;5042098;28;20037;-72
2022/02/18 14:07:19;;;;;;;40.00;7.97;;;;;;;;;;5044648;28;20472;-74
2022/02/18 14:09:52;;;;;;;38.15;8.60;;;;;;;;;;5046497;28;20033;-75
2022/02/18 14:12:19;;;;;;;45.05;8.40;;;;;;;;;;5041989;28;20480;-67
2022/02/18 14:15:04;;;;;;;35.45;7.75;;;;;;;;;;5054174;28;20788;-77
2022/02/18 14:17:42;;;;;;;36.85;7.53;;;;;;;;;;5049333;28;20021;-74
2022/02/18 14:20:08;;;;;;;35.00;6.82;;;;;;;;;;5053572;28;20370;-76
2022/02/18 14:22:36;;;;;;;31.55;6.05;;;;;;;;;;5054705;28;20017;-77
2022/02/18 14:25:03;;;;;;;41.08;6.28;;;;;;;;;;5054570;28;20091;-77
2022/02/18 14:27:30;;;;;;;35.92;7.03;;;;;;;;;;5054631;28;20025;-77
2022/02/18 14:30:02;;;;;;;29.45;6.68;;;;;;;;;;5053365;28;20056;-68
2022/02/18 14:32:28;;;;;;;34.05;6.38;;;;;;;;;;5052425;28;20457;-77
2022/02/18 14:35:12;;;;;;;32.10;5.78;;;;;;;;;;5048171;28;20032;-76
2022/02/18 14:37:40;;;;;;;29.60;6.68;;;;;;;;;;5047036;28;20152;-67
2022/02/18 14:40:10;;;;;;;27.13;5.53;;;;;;;;;;5052621;28;20837;-72
2022/02/18 14:42:36;;;;;;;32.10;5.70;;;;;;;;;;5045781;28;20021;-77